This is the latest recevied weather packets stored in our database for station/object W1HS. If no packets are shown the sender has not sent any weather packets the latest 10 day(s).
| Time | Temp. | Humidity | Pressure | Rain* | Wind** | Luminosity | Snow |
|---|---|---|---|---|---|---|---|
| 1777932325 | 20° C | 36% | 986.6 hPa | 0 mm | - | 274 W/m² | - |
| 1777931786 | 20.56° C | 35% | 986.6 hPa | 0 mm | - | 330 W/m² | - |
| 1777931488 | 20.56° C | 36% | 986.6 hPa | 0 mm | - | 348 W/m² | - |
| 1777930878 | 20° C | 38% | 986.8 hPa | 0 mm | - | 424 W/m² | - |
| 1777930278 | 20° C | 37% | 986.8 hPa | 0 mm | - | 436 W/m² | - |
| 1777929678 | 20° C | 36% | 986.8 hPa | 0 mm | - | 480 W/m² | - |
| 1777929078 | 19.44° C | 39% | 986.9 hPa | 0 mm | - | 149 W/m² | - |
| 1777928478 | 19.44° C | 37% | 986.9 hPa | 0 mm | - | 158 W/m² | - |
| 1777927878 | 20° C | 37% | 986.9 hPa | 0 mm | - | 547 W/m² | - |
| 1777927278 | 19.44° C | 38% | 987.1 hPa | 0 mm | - | 589 W/m² | - |
| 1777926695 | 19.44° C | 38% | 986.9 hPa | 0 mm | - | 710 W/m² | - |
| 1777926078 | 19.44° C | 37% | 987 hPa | 0 mm | - | 200 W/m² | - |
| 1777925478 | 19.44° C | 38% | 987 hPa | 0 mm | - | 792 W/m² | - |
| 1777924882 | 19.44° C | 37% | 987 hPa | 0 mm | - | 858 W/m² | - |
| 1777924280 | 20° C | 37% | 987.3 hPa | 0 mm | - | 856 W/m² | - |
| 1777923678 | 19.44° C | 39% | 987.4 hPa | 0 mm | - | 248 W/m² | - |
| 1777923080 | 19.44° C | 38% | 987.3 hPa | 0 mm | - | 406 W/m² | - |
| 1777922489 | 18.89° C | 39% | 987.2 hPa | 0 mm | - | 309 W/m² | - |
| 1777921880 | 19.44° C | 38% | 987.3 hPa | 0 mm | - | 348 W/m² | - |
| 1777921280 | 20° C | 38% | 987.4 hPa | 0 mm | - | 1002 W/m² | - |
| 1777920680 | 19.44° C | 38% | 987.3 hPa | 0 mm | - | 1042 W/m² | - |
| 1777920080 | 18.89° C | 39% | 987.3 hPa | 0 mm | - | 332 W/m² | - |
| 1777919480 | 18.89° C | 38% | 987.4 hPa | 0 mm | - | 1067 W/m² | - |
| 1777918880 | 18.89° C | 38% | 987.3 hPa | 0 mm | - | 1099 W/m² | - |
| 1777918280 | 18.33° C | 40% | 987.5 hPa | 0 mm | - | 1143 W/m² | - |
* Rain latest hour (hover to see other rain measurements)
** Current wind speed in m/s (hover to see current wind gust speed)